createdAt,value
2022-09-05T00:00:11.973Z,6.93
2022-09-05T00:02:54.007Z,7.40
2022-09-05T00:05:59.991Z,6.55
2022-09-05T00:08:56.356Z,6.95
2022-09-05T00:11:40.458Z,7.20
2022-09-05T00:15:14.820Z,7.43
2022-09-05T00:18:11.909Z,7.60
2022-09-05T00:24:33.058Z,7.28
2022-09-05T00:24:43.574Z,7.85
2022-09-05T00:26:56.169Z,7.22
2022-09-05T00:31:08.116Z,7.60
2022-09-05T00:33:00.949Z,7.70
2022-09-05T00:35:54.215Z,7.63
2022-09-05T00:38:33.433Z,7.50
2022-09-05T00:41:12.153Z,7.38
2022-09-05T00:43:45.508Z,7.63
2022-09-05T00:46:19.291Z,7.65
2022-09-05T00:49:00.186Z,7.35
2022-09-05T00:51:38.989Z,7.90
2022-09-05T00:55:03.262Z,7.40
2022-09-05T00:58:09.352Z,8.45
2022-09-05T01:00:53.061Z,7.60
2022-09-05T01:03:53.543Z,7.78
2022-09-05T01:06:38.374Z,7.78
2022-09-05T01:09:22.901Z,8.23
2022-09-05T01:12:10.518Z,7.97
2022-09-05T01:15:01.937Z,7.90
2022-09-05T01:17:52.458Z,8.57
2022-09-05T01:20:46.556Z,7.88
2022-09-05T01:23:50.081Z,8.48
2022-09-05T01:27:00.742Z,8.65
2022-09-05T01:29:44.771Z,7.22
2022-09-05T01:32:33.975Z,8.50
2022-09-05T01:35:36.402Z,7.95
2022-09-05T01:38:15.167Z,8.27
2022-09-05T01:41:17.810Z,8.70
2022-09-05T01:44:06.007Z,8.07
2022-09-05T01:46:45.471Z,8.25
2022-09-05T01:49:25.129Z,9.50
2022-09-05T01:52:26.672Z,8.50
2022-09-05T01:55:32.177Z,8.82
2022-09-05T01:58:14.821Z,8.23
2022-09-05T02:01:25.332Z,8.02
2022-09-05T02:04:07.118Z,8.02
2022-09-05T02:06:54.971Z,8.55
2022-09-05T02:09:58.232Z,7.75
2022-09-05T02:13:02.208Z,7.95
2022-09-05T02:15:59.355Z,9.98
2022-09-05T02:18:44.355Z,8.43
2022-09-05T02:21:28.883Z,7.97
2022-09-05T02:24:14.081Z,8.10
2022-09-05T02:27:08.699Z,8.13
2022-09-05T02:29:50.548Z,8.40
2022-09-05T02:32:25.925Z,8.43
2022-09-05T02:35:04.237Z,8.65
2022-09-05T02:39:05.454Z,8.15
2022-09-05T02:45:02.811Z,9.15
2022-09-05T02:45:21.827Z,7.95
2022-09-05T02:46:46.658Z,8.27
2022-09-05T02:52:16.796Z,8.88
2022-09-05T02:57:28.965Z,8.80
2022-09-05T02:57:41.149Z,8.40
2022-09-05T02:59:08.184Z,8.93
2022-09-05T03:01:55.910Z,8.40
2022-09-05T03:04:35.300Z,8.77
2022-09-05T03:07:19.913Z,8.55
2022-09-05T03:10:32.275Z,8.80
2022-09-05T03:13:54.505Z,9.13
2022-09-05T03:17:14.943Z,8.68
2022-09-05T03:20:40.883Z,8.75
2022-09-05T03:24:03.816Z,8.33
2022-09-05T03:27:10.511Z,9.43
2022-09-05T03:30:13.067Z,8.75
2022-09-05T03:33:30.923Z,8.25
2022-09-05T03:36:41.157Z,9.27
2022-09-05T03:40:15.206Z,9.15
2022-09-05T03:43:17.342Z,9.10
2022-09-05T03:46:13.004Z,9.43
2022-09-05T03:52:13.146Z,11.98
2022-09-05T03:57:11.479Z,10.77
2022-09-05T03:57:15.451Z,9.20
2022-09-05T03:59:06.342Z,8.90
2022-09-05T04:03:30.787Z,9.05
2022-09-05T04:08:16.468Z,9.30
2022-09-05T04:08:28.123Z,9.25
2022-09-05T04:10:37.524Z,9.82
2022-09-05T04:13:17.302Z,10.82
2022-09-05T04:16:01.382Z,9.52
2022-09-05T04:18:39.178Z,9.03
2022-09-05T04:21:15.831Z,9.53
2022-09-05T04:24:01.349Z,9.25
2022-09-05T04:27:01.716Z,9.17
2022-09-05T04:29:47.702Z,9.67
2022-09-05T04:32:34.775Z,8.98
2022-09-05T04:35:26.639Z,8.93
2022-09-05T04:38:06.111Z,9.33
2022-09-05T04:40:43.957Z,10.00
2022-09-05T04:43:25.255Z,9.80
2022-09-05T04:46:01.162Z,8.57
2022-09-05T04:48:39.261Z,9.53
2022-09-05T04:51:29.166Z,8.75
2022-09-05T04:54:30.054Z,9.98
2022-09-05T04:57:13.603Z,8.80
2022-09-05T05:06:02.647Z,9.07
2022-09-05T05:06:03.005Z,9.07
2022-09-05T05:06:16.109Z,9.47
2022-09-05T05:08:52.138Z,7.63
2022-09-05T05:17:54.816Z,8.90
2022-09-05T05:18:07.221Z,10.77
2022-09-05T05:18:14.522Z,9.20
2022-09-05T05:20:40.598Z,8.63
2022-09-05T05:23:17.908Z,8.15
2022-09-05T05:25:53.803Z,9.43
2022-09-05T05:28:32.591Z,8.68
2022-09-05T05:31:14.653Z,8.68
2022-09-05T05:33:49.960Z,8.32
2022-09-05T05:36:25.529Z,8.50
2022-09-05T05:39:05.048Z,8.27
2022-09-05T05:41:44.398Z,11.85
2022-09-05T05:44:16.932Z,8.60
2022-09-05T05:46:59.225Z,9.20
2022-09-05T05:49:49.309Z,7.90
2022-09-05T05:53:05.707Z,8.20
2022-09-05T05:56:04.190Z,8.23
2022-09-05T05:58:59.706Z,10.38
2022-09-05T06:02:26.702Z,8.95
2022-09-05T06:05:27.725Z,8.38
2022-09-05T06:10:58.941Z,8.23
2022-09-05T06:15:04.153Z,8.30
2022-09-05T06:15:50.688Z,8.15
2022-09-05T06:19:11.083Z,8.60
2022-09-05T06:22:21.380Z,9.13
2022-09-05T06:25:44.447Z,8.07
2022-09-05T06:28:25.554Z,8.30
2022-09-05T06:31:30.799Z,8.38
2022-09-05T06:34:33.316Z,8.45
2022-09-05T06:37:19.873Z,8.98
2022-09-05T06:40:09.794Z,9.77
2022-09-05T06:43:05.639Z,7.30
2022-09-05T06:46:55.233Z,9.07
2022-09-05T06:49:29.736Z,9.00
2022-09-05T06:53:16.716Z,7.75
2022-09-05T06:56:29.246Z,8.32
2022-09-05T07:00:00.822Z,10.30
2022-09-05T07:02:58.058Z,10.88
2022-09-05T07:05:44.824Z,9.32
2022-09-05T07:08:36.128Z,9.57
2022-09-05T07:11:16.896Z,9.32
2022-09-05T07:13:59.032Z,9.02
2022-09-05T07:16:47.609Z,8.82
2022-09-05T07:19:29.019Z,9.80
2022-09-05T07:22:45.932Z,9.70
2022-09-05T07:25:11.446Z,9.40
2022-09-05T07:28:26.423Z,9.23
2022-09-05T07:30:51.526Z,10.15
2022-09-05T07:33:22.962Z,10.43
2022-09-05T07:35:55.507Z,9.57
2022-09-05T07:38:38.089Z,10.60
2022-09-05T07:41:25.373Z,9.73
2022-09-05T07:44:00.298Z,9.35
2022-09-05T07:46:33.627Z,10.38
2022-09-05T07:49:07.590Z,9.30
2022-09-05T07:56:54.486Z,9.57
2022-09-05T07:57:01.604Z,10.02
2022-09-05T07:57:51.411Z,9.43
2022-09-05T08:00:26.885Z,9.90
2022-09-05T08:03:00.887Z,9.13
2022-09-05T08:05:43.288Z,9.00
2022-09-05T08:08:19.616Z,11.27
2022-09-05T08:11:24.096Z,9.27
2022-09-05T08:14:43.749Z,8.48
2022-09-05T08:16:56.685Z,9.98
2022-09-05T08:19:54.233Z,8.95
2022-09-05T08:22:31.906Z,8.82
2022-09-05T08:25:15.207Z,10.18
2022-09-05T08:28:06.290Z,9.77
2022-09-05T08:30:44.333Z,9.98
2022-09-05T08:33:21.513Z,10.15
2022-09-05T08:36:01.044Z,9.40
2022-09-05T08:38:35.984Z,9.40
2022-09-05T08:41:30.060Z,9.07
2022-09-05T08:46:37.858Z,9.52
2022-09-05T08:47:26.237Z,9.27
2022-09-05T08:50:29.192Z,9.80
2022-09-05T08:53:36.012Z,9.73
2022-09-05T08:56:10.145Z,9.05
2022-09-05T08:59:28.180Z,9.13
2022-09-05T09:02:44.753Z,9.45
2022-09-05T09:05:14.336Z,9.02
2022-09-05T09:07:54.128Z,9.55
2022-09-05T09:10:50.164Z,10.13
2022-09-05T09:13:37.555Z,10.20
2022-09-05T09:16:15.778Z,8.57
2022-09-05T09:19:09.282Z,8.55
2022-09-05T09:21:54.083Z,8.90
2022-09-05T09:24:39.185Z,9.73
2022-09-05T09:27:24.211Z,9.05
2022-09-05T09:30:14.098Z,10.02
2022-09-05T09:32:47.537Z,9.35
2022-09-05T09:35:23.947Z,8.98
2022-09-05T09:38:36.059Z,9.63
2022-09-05T09:41:39.571Z,8.68
2022-09-05T09:45:27.415Z,10.27
2022-09-05T09:48:56.826Z,9.48
2022-09-05T09:52:02.339Z,7.63
2022-09-05T09:55:23.406Z,9.38
2022-09-05T09:58:22.997Z,10.02
2022-09-05T10:01:02.653Z,10.40
2022-09-05T10:10:38.302Z,9.50
2022-09-05T10:10:50.234Z,9.20
2022-09-05T10:14:49.391Z,9.30
2022-09-05T10:17:44.617Z,8.88
2022-09-05T10:20:39.417Z,8.60
2022-09-05T10:23:58.679Z,9.27
2022-09-05T10:27:13.146Z,8.90
2022-09-05T10:29:57.165Z,8.23
2022-09-05T10:35:09.967Z,8.93
2022-09-05T10:35:37.363Z,9.30
2022-09-05T10:38:15.740Z,8.70
2022-09-05T10:41:21.695Z,9.40
2022-09-05T10:43:51.480Z,8.63
2022-09-05T10:46:50.083Z,8.30
2022-09-05T10:49:27.344Z,8.13
2022-09-05T10:52:19.190Z,8.45
2022-09-05T10:55:21.932Z,7.90
2022-09-05T10:58:14.420Z,8.38
2022-09-05T11:02:22.750Z,7.93
2022-09-05T11:04:14.744Z,8.35
2022-09-05T11:06:55.556Z,10.32
2022-09-05T11:09:47.810Z,7.90
2022-09-05T11:12:42.179Z,7.90
2022-09-05T11:15:29.956Z,7.45
2022-09-05T11:18:04.940Z,7.43
2022-09-05T11:20:53.576Z,6.60
2022-09-05T11:23:32.058Z,7.30
2022-09-05T11:26:07.776Z,6.70
2022-09-05T11:28:59.766Z,6.70
2022-09-05T11:32:42.180Z,6.47
2022-09-05T11:40:04.705Z,7.70
2022-09-05T11:40:10.547Z,6.22
2022-09-05T11:42:21.636Z,6.22
2022-09-05T11:45:39.690Z,6.30
2022-09-05T11:49:01.180Z,6.80
2022-09-05T11:52:17.332Z,5.95
2022-09-05T11:55:22.823Z,7.00
2022-09-05T11:58:45.053Z,6.85
2022-09-05T12:01:41.568Z,6.72
2022-09-05T12:05:49.483Z,8.98
2022-09-05T12:08:06.363Z,6.07
2022-09-05T12:10:53.053Z,6.30
2022-09-05T12:13:42.465Z,6.28
2022-09-05T12:16:45.926Z,6.13
2022-09-05T12:19:31.110Z,6.45
2022-09-05T12:22:27.734Z,6.03
2022-09-05T12:27:41.717Z,6.53
2022-09-05T12:29:32.819Z,6.05
2022-09-05T12:32:52.380Z,6.15
2022-09-05T12:40:44.762Z,6.45
2022-09-05T12:41:39.293Z,6.03
2022-09-05T12:42:09.708Z,6.38
2022-09-05T12:44:37.122Z,6.40
2022-09-05T12:46:33.331Z,5.60
2022-09-05T12:49:08.446Z,5.97
2022-09-05T12:51:46.223Z,6.95
2022-09-05T12:54:34.717Z,6.70
2022-09-05T13:02:27.793Z,6.80
2022-09-05T13:03:03.809Z,6.25
2022-09-05T13:03:40.858Z,6.07
2022-09-05T13:06:04.175Z,6.20
2022-09-05T13:08:52.866Z,5.35
2022-09-05T13:14:56.090Z,6.03
2022-09-05T13:14:57.931Z,6.88
2022-09-05T13:17:31.090Z,6.13
2022-09-05T13:20:04.378Z,5.78
2022-09-05T13:22:38.505Z,5.50
2022-09-05T13:25:26.928Z,5.68
2022-09-05T13:28:02.444Z,5.88
2022-09-05T13:36:42.101Z,5.55
2022-09-05T13:38:04.297Z,5.97
2022-09-05T13:38:11.029Z,5.75
2022-09-05T13:39:28.269Z,6.28
2022-09-05T13:42:03.456Z,5.30
2022-09-05T13:44:41.402Z,5.75
2022-09-05T13:47:29.995Z,6.70
2022-09-05T13:50:22.295Z,6.10
2022-09-05T13:52:58.566Z,5.65
2022-09-05T13:55:45.791Z,5.80
2022-09-05T13:58:26.667Z,6.13
2022-09-05T14:01:34.919Z,5.95
2022-09-05T14:05:06.456Z,5.40
2022-09-05T14:08:17.916Z,6.47
2022-09-05T14:11:45.024Z,5.30
2022-09-05T14:17:54.140Z,6.18
2022-09-05T14:20:49.786Z,5.72
2022-09-05T14:23:27.058Z,5.60
2022-09-05T14:26:05.039Z,6.55
2022-09-05T14:28:46.584Z,5.78
2022-09-05T14:32:59.020Z,6.28
2022-09-05T14:37:55.237Z,5.28
2022-09-05T14:38:14.559Z,5.20
2022-09-05T14:41:45.745Z,5.43
2022-09-05T14:45:11.734Z,5.10
2022-09-05T14:48:20.280Z,5.30
2022-09-05T14:51:25.969Z,5.10
2022-09-05T14:54:01.574Z,5.28
2022-09-05T15:00:12.105Z,5.13
2022-09-05T15:02:48.048Z,5.88
2022-09-05T15:02:54.233Z,5.35
2022-09-05T15:05:35.685Z,6.15
2022-09-05T15:09:36.602Z,5.80
2022-09-05T15:12:21.503Z,5.10
2022-09-05T15:13:58.023Z,5.72
2022-09-05T15:16:26.924Z,5.95
2022-09-05T15:18:56.302Z,5.60
2022-09-05T15:21:33.893Z,6.03
2022-09-05T15:24:16.918Z,5.50
2022-09-05T15:26:55.615Z,7.03
2022-09-05T15:29:27.931Z,9.68
2022-09-05T15:32:17.574Z,5.22
2022-09-05T15:34:46.113Z,5.35
2022-09-05T15:37:33.217Z,5.45
2022-09-05T15:40:07.704Z,5.68
2022-09-05T15:42:55.506Z,5.70
2022-09-05T15:45:29.605Z,5.53
2022-09-05T15:48:16.383Z,5.25
2022-09-05T15:50:51.109Z,6.22
2022-09-05T15:53:27.253Z,5.70
2022-09-05T15:56:00.980Z,7.20
2022-09-05T15:58:54.108Z,6.72
2022-09-05T16:01:58.028Z,5.65
2022-09-05T16:08:29.459Z,6.00
2022-09-05T16:10:38.772Z,5.70
2022-09-05T16:10:49.375Z,5.97
2022-09-05T16:13:15.558Z,5.50
2022-09-05T16:20:33.241Z,5.57
2022-09-05T16:23:20.086Z,5.55
2022-09-05T16:23:28.686Z,6.00
2022-09-05T16:24:58.137Z,6.00
2022-09-05T16:27:43.889Z,5.95
2022-09-05T16:30:21.121Z,6.30
2022-09-05T16:32:54.998Z,7.63
2022-09-05T16:35:26.745Z,6.40
2022-09-05T16:38:08.075Z,6.20
2022-09-05T16:40:43.180Z,6.32
2022-09-05T16:43:19.228Z,6.55
2022-09-05T16:45:58.401Z,6.53
2022-09-05T16:48:45.058Z,6.13
2022-09-05T16:51:35.300Z,6.95
2022-09-05T16:54:14.593Z,6.18
2022-09-05T16:56:48.714Z,6.90
2022-09-05T16:59:21.859Z,6.47
2022-09-05T17:02:08.960Z,6.65
2022-09-05T17:05:05.949Z,6.10
2022-09-05T17:08:01.932Z,7.10
2022-09-05T17:10:41.659Z,8.32
2022-09-05T17:13:15.220Z,6.90
2022-09-05T17:15:52.881Z,6.68
2022-09-05T17:18:27.870Z,7.00
2022-09-05T17:21:06.836Z,8.10
2022-09-05T17:29:19.470Z,8.50
2022-09-05T17:29:42.136Z,8.77
2022-09-05T17:32:53.139Z,8.40
2022-09-05T17:35:42.857Z,8.80
2022-09-05T17:38:49.670Z,9.25
2022-09-05T17:41:55.042Z,10.02
2022-09-05T17:44:30.279Z,9.93
2022-09-05T17:47:15.310Z,10.32
2022-09-05T17:49:46.358Z,10.43
2022-09-05T17:52:22.800Z,10.65
2022-09-05T17:54:55.526Z,10.52
2022-09-05T17:57:42.368Z,10.40
2022-09-05T18:01:07.585Z,10.27
2022-09-05T18:04:16.734Z,10.82
2022-09-05T18:06:59.265Z,10.32
2022-09-05T18:09:58.993Z,10.68
2022-09-05T18:13:12.816Z,11.18
2022-09-05T18:16:10.489Z,11.25
2022-09-05T18:19:29.098Z,11.00
2022-09-05T18:21:49.680Z,11.43
2022-09-05T18:27:43.704Z,11.82
2022-09-05T18:33:54.407Z,11.65
2022-09-05T18:36:34.920Z,11.27
2022-09-05T18:39:43.655Z,12.10
2022-09-05T18:42:25.890Z,11.27
2022-09-05T18:45:01.680Z,12.43
2022-09-05T18:47:51.127Z,11.10
2022-09-05T18:50:32.244Z,11.63
2022-09-05T18:53:08.919Z,11.52
2022-09-05T18:56:12.773Z,11.65
2022-09-05T18:58:51.685Z,13.02
2022-09-05T19:01:29.136Z,10.73
2022-09-05T19:04:06.196Z,10.90
2022-09-05T19:06:45.355Z,12.25
2022-09-05T19:09:26.711Z,10.30
2022-09-05T19:12:35.086Z,11.40
2022-09-05T19:14:57.171Z,12.07
2022-09-05T19:17:37.652Z,11.55
2022-09-05T19:20:32.246Z,11.70
2022-09-05T19:23:10.367Z,11.50
2022-09-05T19:25:44.497Z,11.63
2022-09-05T19:36:45.067Z,11.35
2022-09-05T19:36:48.933Z,11.48
2022-09-05T19:37:05.137Z,11.88
2022-09-05T19:37:29.593Z,11.70
2022-09-05T19:43:39.050Z,11.75
2022-09-05T19:47:36.730Z,10.70
2022-09-05T19:47:39.463Z,11.50
2022-09-05T19:48:27.741Z,12.88
2022-09-05T19:51:16.194Z,11.23
2022-09-05T19:53:48.884Z,11.00
2022-09-05T19:56:38.473Z,11.85
2022-09-05T19:59:18.706Z,11.68
2022-09-05T20:01:48.861Z,11.70
2022-09-05T20:04:18.866Z,11.48
2022-09-05T20:06:50.458Z,11.68
2022-09-05T20:09:21.480Z,11.68
2022-09-05T20:11:52.518Z,11.75
2022-09-05T20:14:26.589Z,10.95
2022-09-05T20:16:58.855Z,11.35
2022-09-05T20:19:32.253Z,10.32
2022-09-05T20:22:17.439Z,10.77
2022-09-05T20:24:56.196Z,11.30
2022-09-05T20:27:28.321Z,11.23
2022-09-05T20:30:00.670Z,10.23
2022-09-05T20:32:38.723Z,10.10
2022-09-05T20:39:08.626Z,10.73
2022-09-05T20:43:11.679Z,10.13
2022-09-05T20:43:29.408Z,10.60
2022-09-05T20:43:57.637Z,10.65
2022-09-05T20:50:44.435Z,10.85
2022-09-05T20:54:16.797Z,10.73
2022-09-05T20:54:20.151Z,10.48
2022-09-05T20:55:39.609Z,10.75
2022-09-05T20:58:13.187Z,11.10
2022-09-05T21:01:20.271Z,10.45
2022-09-05T21:03:40.999Z,10.65
2022-09-05T21:06:23.511Z,10.57
2022-09-05T21:08:55.898Z,10.82
2022-09-05T21:11:34.022Z,10.55
2022-09-05T21:14:06.098Z,11.05
2022-09-05T21:16:44.896Z,10.52
2022-09-05T21:19:34.417Z,10.77
2022-09-05T21:22:05.132Z,10.30
2022-09-05T21:24:33.564Z,10.60
2022-09-05T21:27:18.717Z,10.77
2022-09-05T21:29:58.541Z,11.32
2022-09-05T21:32:41.346Z,9.48
2022-09-05T21:35:34.555Z,10.80
2022-09-05T21:38:01.547Z,10.48
2022-09-05T21:40:29.901Z,10.73
2022-09-05T21:47:39.255Z,10.00
2022-09-05T21:47:50.096Z,11.00
2022-09-05T21:48:37.724Z,10.05
2022-09-05T21:51:10.120Z,10.35
2022-09-05T21:59:00.475Z,11.65
2022-09-05T21:59:24.723Z,10.75
2022-09-05T21:59:41.696Z,11.65
2022-09-05T22:02:16.444Z,10.93
2022-09-05T22:04:47.094Z,10.60
2022-09-05T22:07:31.979Z,10.40
2022-09-05T22:10:03.430Z,10.43
2022-09-05T22:12:35.650Z,10.20
2022-09-05T22:15:26.783Z,11.30
2022-09-05T22:18:02.565Z,10.73
2022-09-05T22:20:53.524Z,10.73
2022-09-05T22:23:37.678Z,10.93
2022-09-05T22:26:06.591Z,11.30
2022-09-05T22:28:46.159Z,9.85
2022-09-05T22:31:16.011Z,10.18
2022-09-05T22:33:44.234Z,11.80
2022-09-05T22:36:18.779Z,10.75
2022-09-05T22:38:47.623Z,11.05
2022-09-05T22:41:15.760Z,10.48
2022-09-05T22:43:46.296Z,9.90
2022-09-05T22:46:15.911Z,9.88
2022-09-05T22:48:43.973Z,11.10
2022-09-05T22:51:12.126Z,10.18
2022-09-05T22:53:40.540Z,11.00
2022-09-05T22:56:09.733Z,10.65
2022-09-05T22:58:39.881Z,10.13
2022-09-05T23:01:09.033Z,10.68
2022-09-05T23:03:38.552Z,10.38
2022-09-05T23:06:10.101Z,10.90
2022-09-05T23:08:38.135Z,9.98
2022-09-05T23:11:09.051Z,10.63
2022-09-05T23:13:37.139Z,10.82
2022-09-05T23:16:05.866Z,10.57
2022-09-05T23:18:34.893Z,10.80
2022-09-05T23:21:06.987Z,11.07
2022-09-05T23:23:36.950Z,11.00
2022-09-05T23:26:09.470Z,10.48
2022-09-05T23:28:42.682Z,10.35
2022-09-05T23:31:13.103Z,9.30
2022-09-05T23:33:42.865Z,10.07
2022-09-05T23:36:14.507Z,11.00
2022-09-05T23:38:43.333Z,9.90
2022-09-05T23:41:15.287Z,10.05
2022-09-05T23:43:44.031Z,10.90
2022-09-05T23:46:12.157Z,10.02
2022-09-05T23:48:40.357Z,10.05
2022-09-05T23:51:12.033Z,9.70
2022-09-05T23:53:40.557Z,9.93
2022-09-05T23:56:12.249Z,10.35
2022-09-05T23:58:40.536Z,11.05
